createdAt,value
2022-11-17T00:02:03.869Z,87147.78
2022-11-17T00:04:48.653Z,87153.59
2022-11-17T00:07:33.502Z,87148.69
2022-11-17T00:10:18.145Z,87153.13
2022-11-17T00:13:02.920Z,87150.31
2022-11-17T00:15:47.686Z,87148.31
2022-11-17T00:18:32.333Z,87140.28
2022-11-17T00:21:17.126Z,87137.41
2022-11-17T00:24:01.873Z,87139.97
2022-11-17T00:26:46.654Z,87141.63
2022-11-17T00:29:31.486Z,87139.69
2022-11-17T00:32:16.074Z,87144.84
2022-11-17T00:35:00.727Z,87153.00
2022-11-17T00:37:45.337Z,87161.06
2022-11-17T00:40:30.082Z,87156.31
2022-11-17T00:43:14.750Z,87158.72
2022-11-17T00:45:59.463Z,87154.81
2022-11-17T00:48:44.153Z,87156.97
2022-11-17T00:51:29.002Z,87161.41
2022-11-17T00:54:13.791Z,87167.75
2022-11-17T00:56:58.678Z,87173.78
2022-11-17T00:59:43.622Z,87168.88
2022-11-17T01:02:28.260Z,87164.97
2022-11-17T01:05:13.027Z,87159.47
2022-11-17T01:07:57.828Z,87156.81
2022-11-17T01:10:42.666Z,87151.13
2022-11-17T01:13:27.308Z,87143.41
2022-11-17T01:16:12.040Z,87141.88
2022-11-17T01:18:56.653Z,87132.47
2022-11-17T01:21:41.459Z,87131.50
2022-11-17T01:24:26.237Z,87121.41
2022-11-17T01:27:10.982Z,87121.84
2022-11-17T01:29:55.799Z,87111.59
2022-11-17T01:32:40.454Z,87106.56
2022-11-17T01:35:25.240Z,87103.06
2022-11-17T01:38:09.928Z,87095.09
2022-11-17T01:40:54.684Z,87091.75
2022-11-17T01:43:39.302Z,87078.91
2022-11-17T01:46:24.128Z,87068.03
2022-11-17T01:49:08.927Z,87047.81
2022-11-17T01:51:53.644Z,87051.16
2022-11-17T01:54:38.334Z,87043.03
2022-11-17T01:57:23.070Z,87036.66
2022-11-17T02:00:07.758Z,87026.56
2022-11-17T02:02:52.508Z,87015.84
2022-11-17T02:05:37.378Z,87005.00
2022-11-17T02:08:22.046Z,87011.59
2022-11-17T02:11:06.812Z,87016.16
2022-11-17T02:13:51.533Z,87031.50
2022-11-17T02:16:36.292Z,87060.03
2022-11-17T02:19:20.977Z,87097.19
2022-11-17T02:22:05.735Z,87120.22
2022-11-17T02:24:50.405Z,87122.84
2022-11-17T02:27:35.358Z,87145.03
2022-11-17T02:30:20.049Z,87149.69
2022-11-17T02:33:04.923Z,87152.44
2022-11-17T02:35:49.718Z,87142.59
2022-11-17T02:38:34.475Z,87165.69
2022-11-17T02:41:19.262Z,87164.88
2022-11-17T02:44:04.004Z,87154.38
2022-11-17T02:46:48.945Z,87154.59
2022-11-17T02:49:33.753Z,87138.41
2022-11-17T02:52:18.474Z,87144.28
2022-11-17T02:55:03.093Z,87148.94
2022-11-17T02:57:47.776Z,87134.31
2022-11-17T03:00:32.718Z,87142.13
2022-11-17T03:03:17.331Z,87148.34
2022-11-17T03:06:02.103Z,87154.44
2022-11-17T03:08:46.771Z,87147.16
2022-11-17T03:11:31.496Z,87134.59
2022-11-17T03:14:16.558Z,87137.59
2022-11-17T03:17:01.726Z,87139.88
2022-11-17T03:19:46.484Z,87127.28
2022-11-17T03:22:31.298Z,87117.38
2022-11-17T03:25:16.148Z,87116.19
2022-11-17T03:28:00.804Z,87118.56
2022-11-17T03:30:45.726Z,87114.72
2022-11-17T03:33:30.433Z,87086.97
2022-11-17T03:36:15.272Z,87095.69
2022-11-17T03:38:59.840Z,87094.31
2022-11-17T03:41:44.584Z,87085.69
2022-11-17T03:44:29.347Z,87079.00
2022-11-17T03:47:14.160Z,87071.06
2022-11-17T03:49:58.898Z,87066.47
2022-11-17T03:52:43.628Z,87067.47
2022-11-17T03:55:28.456Z,87062.31
2022-11-17T03:58:13.176Z,87066.34
2022-11-17T04:00:57.896Z,87056.34
2022-11-17T04:03:42.579Z,87062.59
2022-11-17T04:06:27.268Z,87068.16
2022-11-17T04:09:11.867Z,87067.78
2022-11-17T04:11:56.640Z,87073.06
2022-11-17T04:14:41.440Z,87077.09
2022-11-17T04:17:26.725Z,87101.84
2022-11-17T04:20:11.449Z,87097.88
2022-11-17T04:22:56.248Z,87117.44
2022-11-17T04:25:41.118Z,87111.72
2022-11-17T04:28:25.939Z,87129.16
2022-11-17T04:31:10.703Z,87136.69
2022-11-17T04:33:55.427Z,87121.00
2022-11-17T04:36:40.246Z,87110.41
2022-11-17T04:39:25.018Z,87113.97
2022-11-17T04:42:09.740Z,87107.19
2022-11-17T04:44:54.508Z,87117.59
2022-11-17T04:47:39.164Z,87125.44
2022-11-17T04:50:23.920Z,87124.38
2022-11-17T04:53:08.718Z,87111.94
2022-11-17T04:55:53.298Z,87109.25
2022-11-17T04:58:38.024Z,87107.31
2022-11-17T05:01:22.699Z,87096.13
2022-11-17T05:04:07.339Z,87106.94
2022-11-17T05:06:52.272Z,87098.75
2022-11-17T05:09:36.858Z,87095.66
2022-11-17T05:12:21.618Z,87102.06
2022-11-17T05:15:06.280Z,87108.25
2022-11-17T05:17:51.182Z,87100.53
2022-11-17T05:20:35.811Z,87095.09
2022-11-17T05:23:20.657Z,87104.06
2022-11-17T05:26:05.287Z,87103.50
2022-11-17T05:28:50.051Z,87109.53
2022-11-17T05:31:34.834Z,87107.13
2022-11-17T05:34:19.472Z,87110.66
2022-11-17T05:37:04.432Z,87098.56
2022-11-17T05:39:49.109Z,87080.34
2022-11-17T05:42:33.950Z,87071.19
2022-11-17T05:45:18.827Z,87049.84
2022-11-17T05:48:03.535Z,87045.16
2022-11-17T05:50:48.108Z,87048.47
2022-11-17T05:53:33.360Z,87034.56
2022-11-17T05:56:18.151Z,87030.03
2022-11-17T05:59:02.873Z,87032.75
2022-11-17T06:01:47.646Z,87034.59
2022-11-17T06:04:32.465Z,87045.34
2022-11-17T06:07:17.253Z,87043.00
2022-11-17T06:10:02.011Z,87032.66
2022-11-17T06:12:46.715Z,87029.75
2022-11-17T06:15:31.583Z,87027.78
2022-11-17T06:18:16.521Z,87022.38
2022-11-17T06:21:01.338Z,87039.94
2022-11-17T06:23:46.038Z,87041.47
2022-11-17T06:26:30.729Z,87032.78
2022-11-17T06:29:15.403Z,87034.84
2022-11-17T06:32:00.083Z,87032.47
2022-11-17T06:34:47.982Z,87031.19
2022-11-17T06:37:35.311Z,87027.28
2022-11-17T06:40:19.952Z,87021.47
2022-11-17T06:43:04.692Z,87038.03
2022-11-17T06:45:49.484Z,87043.16
2022-11-17T06:48:34.488Z,87055.00
2022-11-17T06:51:19.459Z,87056.69
2022-11-17T06:54:04.205Z,87063.53
2022-11-17T06:56:48.912Z,87067.25
2022-11-17T06:59:33.740Z,87069.38
2022-11-17T07:02:18.464Z,87063.88
2022-11-17T07:05:03.110Z,87063.78
2022-11-17T07:07:47.919Z,87052.41
2022-11-17T07:10:32.680Z,87057.69
2022-11-17T07:13:17.469Z,87052.28
2022-11-17T07:16:02.216Z,87038.25
2022-11-17T07:18:46.767Z,87021.94
2022-11-17T07:21:31.651Z,87021.88
2022-11-17T07:24:16.303Z,87028.81
2022-11-17T07:27:01.262Z,87021.41
2022-11-17T07:29:46.107Z,87025.81
2022-11-17T07:32:30.860Z,87026.50
2022-11-17T07:35:15.505Z,87011.56
2022-11-17T07:38:00.411Z,87021.06
2022-11-17T07:40:45.101Z,87016.44
2022-11-17T07:43:30.003Z,87014.28
2022-11-17T07:46:14.810Z,87013.47
2022-11-17T07:48:59.356Z,87005.69
2022-11-17T07:51:44.266Z,87007.88
2022-11-17T07:54:28.862Z,86999.00
2022-11-17T07:57:13.588Z,87005.34
2022-11-17T07:59:58.318Z,87018.38
2022-11-17T08:02:43.043Z,87019.75
2022-11-17T08:05:28.962Z,87025.38
2022-11-17T08:08:14.121Z,87033.19
2022-11-17T08:10:58.959Z,87045.84
2022-11-17T08:19:22.685Z,87045.69
2022-11-17T08:22:07.344Z,87057.63
2022-11-17T08:24:52.236Z,87060.78
2022-11-17T08:27:37.092Z,87059.66
2022-11-17T08:30:21.925Z,87060.22
2022-11-17T08:33:06.771Z,87059.78
2022-11-17T08:35:51.581Z,87051.81
2022-11-17T08:38:36.735Z,87055.09
2022-11-17T08:41:21.834Z,87069.13
2022-11-17T08:44:06.754Z,87069.72
2022-11-17T08:46:51.604Z,87070.53
2022-11-17T08:49:36.336Z,87053.38
2022-11-17T08:52:20.960Z,87059.28
2022-11-17T08:55:05.882Z,87061.47
2022-11-17T08:57:50.966Z,87060.38
2022-11-17T09:00:35.716Z,87047.69
2022-11-17T09:03:20.591Z,87054.84
2022-11-17T09:06:05.266Z,87060.03
2022-11-17T09:08:50.215Z,87051.03
2022-11-17T09:11:35.301Z,87043.22
2022-11-17T09:14:20.105Z,87040.59
2022-11-17T09:17:04.974Z,87049.78
2022-11-17T09:19:49.732Z,87046.13
2022-11-17T09:22:34.459Z,87043.31
2022-11-17T09:25:19.238Z,87042.31
2022-11-17T09:28:04.066Z,87062.25
2022-11-17T09:30:48.699Z,87072.44
2022-11-17T09:33:33.707Z,87083.53
2022-11-17T09:36:18.925Z,87081.63
2022-11-17T09:39:03.650Z,87100.81
2022-11-17T09:41:48.474Z,87102.22
2022-11-17T09:44:33.194Z,87084.81
2022-11-17T09:47:18.074Z,87091.38
2022-11-17T09:50:03.016Z,87108.47
2022-11-17T09:52:47.909Z,87094.91
2022-11-17T09:55:34.411Z,87091.66
2022-11-17T09:58:19.395Z,87101.06
2022-11-17T10:01:04.082Z,87096.31
2022-11-17T10:03:49.034Z,87092.19
2022-11-17T10:06:34.062Z,87098.91
2022-11-17T10:09:24.049Z,87094.19
2022-11-17T10:12:10.369Z,87094.66
2022-11-17T10:14:55.763Z,87091.59
2022-11-17T10:17:40.523Z,87092.28
2022-11-17T10:20:25.392Z,87089.03
2022-11-17T10:23:09.993Z,87085.41
2022-11-17T10:25:54.920Z,87080.13
2022-11-17T10:28:39.491Z,87077.50
2022-11-17T10:31:24.190Z,87073.94
2022-11-17T10:34:08.890Z,87075.50
2022-11-17T10:36:53.826Z,87067.47
2022-11-17T10:39:38.595Z,87061.63
2022-11-17T10:42:23.445Z,87050.34
2022-11-17T10:45:08.300Z,87041.91
2022-11-17T10:47:53.094Z,87037.56
2022-11-17T10:50:37.898Z,87036.50
2022-11-17T10:53:22.619Z,87034.66
2022-11-17T10:56:07.370Z,87025.09
2022-11-17T10:58:52.040Z,87015.91
2022-11-17T11:01:36.826Z,87017.38
2022-11-17T11:04:21.437Z,87021.03
2022-11-17T11:07:06.223Z,87024.78
2022-11-17T11:09:50.915Z,87016.31
2022-11-17T11:12:35.662Z,87008.84
2022-11-17T11:15:20.472Z,87012.16
2022-11-17T11:18:05.267Z,87004.41
2022-11-17T11:20:50.275Z,87015.22
2022-11-17T11:23:34.929Z,87009.19
2022-11-17T11:26:19.784Z,87010.63
2022-11-17T11:29:04.622Z,87009.94
2022-11-17T11:31:49.385Z,87002.66
2022-11-17T11:34:34.197Z,87004.94
2022-11-17T11:37:18.908Z,87002.75
2022-11-17T11:40:03.662Z,86993.28
2022-11-17T11:42:48.421Z,86996.97
2022-11-17T11:45:33.194Z,86996.75
2022-11-17T11:48:17.832Z,86992.84
2022-11-17T11:51:02.726Z,86980.97
2022-11-17T11:53:47.536Z,86980.63
2022-11-17T11:56:32.319Z,86977.41
2022-11-17T11:59:17.020Z,86968.34
2022-11-17T12:02:01.895Z,86967.53
2022-11-17T12:04:46.692Z,86970.97
2022-11-17T12:07:31.535Z,86976.03
2022-11-17T12:10:16.631Z,86971.47
2022-11-17T12:13:01.369Z,86964.63
2022-11-17T12:15:46.135Z,86969.59
2022-11-17T12:18:30.768Z,86968.13
2022-11-17T12:21:15.555Z,86967.31
2022-11-17T12:24:00.160Z,86952.59
2022-11-17T12:26:45.050Z,86937.56
2022-11-17T12:29:29.831Z,86936.06
2022-11-17T12:32:14.650Z,86946.00
2022-11-17T12:34:59.444Z,86941.16
2022-11-17T12:37:44.173Z,86948.75
2022-11-17T12:40:29.007Z,86941.56
2022-11-17T12:43:13.778Z,86935.03
2022-11-17T12:45:58.594Z,86941.25
2022-11-17T12:48:43.439Z,86937.63
2022-11-17T12:51:28.229Z,86931.13
2022-11-17T12:54:13.486Z,86933.94
2022-11-17T12:56:58.333Z,86931.31
2022-11-17T12:59:42.998Z,86944.28
2022-11-17T13:02:27.836Z,86933.91
2022-11-17T13:05:12.446Z,86929.78
2022-11-17T13:07:57.118Z,86942.63
2022-11-17T13:10:41.758Z,86941.00
2022-11-17T13:13:26.493Z,86934.09
2022-11-17T13:16:11.348Z,86937.56
2022-11-17T13:18:56.039Z,86939.44
2022-11-17T13:21:40.797Z,86936.59
2022-11-17T13:24:25.499Z,86930.63
2022-11-17T13:27:10.314Z,86928.19
2022-11-17T13:29:55.016Z,86928.25
2022-11-17T13:32:39.767Z,86925.22
2022-11-17T13:35:24.462Z,86927.19
2022-11-17T13:38:09.139Z,86924.00
2022-11-17T13:40:53.724Z,86916.63
2022-11-17T13:43:38.413Z,86916.72
2022-11-17T13:46:23.208Z,86916.00
2022-11-17T13:49:08.035Z,86913.00
2022-11-17T13:51:52.893Z,86907.38
2022-11-17T13:54:37.507Z,86908.69
2022-11-17T13:57:22.320Z,86896.25
2022-11-17T14:00:06.994Z,86898.34
2022-11-17T14:02:51.763Z,86893.81
2022-11-17T14:05:36.552Z,86880.75
2022-11-17T14:08:21.403Z,86893.78
2022-11-17T14:11:06.111Z,86890.13
2022-11-17T14:13:50.860Z,86884.47
2022-11-17T14:16:35.561Z,86887.88
2022-11-17T14:19:20.744Z,86887.19
2022-11-17T14:22:05.665Z,86883.19
2022-11-17T14:24:50.331Z,86884.03
2022-11-17T14:27:35.211Z,86885.00
2022-11-17T14:30:19.937Z,86870.44
2022-11-17T14:33:10.496Z,86872.28
2022-11-17T14:35:58.179Z,86878.97
2022-11-17T14:38:42.794Z,86870.22
2022-11-17T14:41:27.566Z,86871.53
2022-11-17T14:44:12.387Z,86875.41
2022-11-17T14:46:57.000Z,86888.66
2022-11-17T14:49:41.878Z,86890.59
2022-11-17T14:52:26.564Z,86875.25
2022-11-17T14:55:11.289Z,86871.03
2022-11-17T14:57:55.993Z,86874.41
2022-11-17T15:00:40.816Z,86885.50
2022-11-17T15:03:25.524Z,86890.50
2022-11-17T15:06:12.095Z,86898.47
2022-11-17T15:08:59.216Z,86901.41
2022-11-17T15:11:44.031Z,86896.63
2022-11-17T15:14:28.802Z,86893.56
2022-11-17T15:17:14.771Z,86885.13
2022-11-17T15:19:59.552Z,86879.81
2022-11-17T15:22:44.289Z,86881.56
2022-11-17T15:25:29.476Z,86887.22
2022-11-17T15:28:20.516Z,86885.34
2022-11-17T15:31:07.322Z,86875.41
2022-11-17T15:33:52.139Z,86871.47
2022-11-17T15:36:36.994Z,86864.75
2022-11-17T15:39:21.875Z,86861.03
2022-11-17T15:42:06.735Z,86857.06
2022-11-17T15:44:51.458Z,86859.97
2022-11-17T15:47:36.366Z,86859.97
2022-11-17T15:50:21.221Z,86873.47
2022-11-17T15:53:05.902Z,86880.00
2022-11-17T15:55:50.685Z,86873.41
2022-11-17T15:58:35.441Z,86892.56
2022-11-17T16:01:20.285Z,86896.47
2022-11-17T16:04:05.343Z,86896.91
2022-11-17T16:06:50.033Z,86895.41
2022-11-17T16:09:34.775Z,86894.47
2022-11-17T16:12:19.663Z,86881.03
2022-11-17T16:15:04.325Z,86884.63
2022-11-17T16:17:48.976Z,86884.94
2022-11-17T16:20:33.768Z,86884.69
2022-11-17T16:23:18.457Z,86882.47
2022-11-17T16:26:03.198Z,86883.03
2022-11-17T16:28:47.814Z,86879.75
2022-11-17T16:31:32.539Z,86891.44
2022-11-17T16:34:17.248Z,86882.22
2022-11-17T16:37:02.051Z,86885.00
2022-11-17T16:39:46.796Z,86887.38
2022-11-17T16:42:31.537Z,86882.56
2022-11-17T16:45:16.081Z,86874.47
2022-11-17T16:48:00.838Z,86877.13
2022-11-17T16:50:45.519Z,86872.72
2022-11-17T16:53:30.353Z,86877.41
2022-11-17T16:56:15.170Z,86873.03
2022-11-17T16:58:59.889Z,86873.13
2022-11-17T17:01:44.742Z,86864.91
2022-11-17T17:04:29.556Z,86862.06
2022-11-17T17:07:14.412Z,86852.31
2022-11-17T17:09:59.151Z,86842.59
2022-11-17T17:12:44.088Z,86850.16
2022-11-17T17:15:28.764Z,86846.75
2022-11-17T17:18:13.448Z,86840.44
2022-11-17T17:20:58.149Z,86845.22
2022-11-17T17:23:42.845Z,86841.94
2022-11-17T17:26:27.709Z,86846.34
2022-11-17T17:29:12.416Z,86849.88
2022-11-17T17:31:57.173Z,86848.53
2022-11-17T17:34:41.989Z,86845.09
2022-11-17T17:37:26.928Z,86841.41
2022-11-17T17:40:11.543Z,86850.59
2022-11-17T17:42:56.194Z,86844.31
2022-11-17T17:45:40.855Z,86834.72
2022-11-17T17:48:25.672Z,86834.97
2022-11-17T17:51:10.477Z,86828.69
2022-11-17T17:53:55.374Z,86836.31
2022-11-17T17:56:40.216Z,86845.25
2022-11-17T17:59:26.161Z,86847.72
2022-11-17T18:02:11.016Z,86842.78
2022-11-17T18:04:55.761Z,86837.41
2022-11-17T18:07:40.552Z,86832.72
2022-11-17T18:10:25.323Z,86824.03
2022-11-17T18:13:10.997Z,86826.94
2022-11-17T18:15:55.950Z,86822.94
2022-11-17T18:18:40.675Z,86835.25
2022-11-17T18:21:25.628Z,86829.19
2022-11-17T18:24:10.404Z,86837.41
2022-11-17T18:26:55.091Z,86839.44
2022-11-17T18:29:39.900Z,86842.19
2022-11-17T18:32:24.739Z,86847.56
2022-11-17T18:35:09.370Z,86843.97
2022-11-17T18:37:54.136Z,86851.41
2022-11-17T18:40:38.775Z,86860.22
2022-11-17T18:43:23.437Z,86860.88
2022-11-17T18:46:08.340Z,86854.16
2022-11-17T18:48:53.010Z,86856.63
2022-11-17T18:51:37.749Z,86866.38
2022-11-17T18:54:22.359Z,86862.66
2022-11-17T18:57:07.042Z,86873.34
2022-11-17T18:59:51.771Z,86871.03
2022-11-17T19:02:36.536Z,86867.03
2022-11-17T19:05:21.238Z,86870.31
2022-11-17T19:08:05.921Z,86867.03
2022-11-17T19:10:50.740Z,86878.28
2022-11-17T19:13:35.525Z,86878.97
2022-11-17T19:16:20.275Z,86886.38
2022-11-17T19:19:05.127Z,86903.84
2022-11-17T19:21:49.973Z,86907.00
2022-11-17T19:24:34.618Z,86906.84
2022-11-17T19:27:19.457Z,86922.13
2022-11-17T19:30:04.197Z,86930.38
2022-11-17T19:32:49.002Z,86935.31
2022-11-17T19:35:33.545Z,86956.88
2022-11-17T19:38:18.273Z,86972.91
2022-11-17T19:41:02.892Z,86987.88
2022-11-17T19:43:47.657Z,86993.09
2022-11-17T19:46:32.429Z,87010.16
2022-11-17T19:49:17.455Z,87020.16
2022-11-17T19:52:02.476Z,87007.38
2022-11-17T19:54:47.111Z,87006.56
2022-11-17T19:57:31.998Z,87014.53
2022-11-17T20:00:16.642Z,87004.78
2022-11-17T20:03:01.565Z,86998.75
2022-11-17T20:05:46.329Z,87002.59
2022-11-17T20:08:31.191Z,86999.72
2022-11-17T20:11:15.829Z,86996.00
2022-11-17T20:14:00.663Z,87000.69
2022-11-17T20:16:45.399Z,86992.59
2022-11-17T20:19:30.235Z,86993.97
2022-11-17T20:22:14.989Z,86991.47
2022-11-17T20:25:03.391Z,86993.53
2022-11-17T20:27:48.596Z,86992.41
2022-11-17T20:30:33.349Z,87003.50
2022-11-17T20:33:18.201Z,86995.19
2022-11-17T20:36:02.792Z,86996.53
2022-11-17T20:38:47.501Z,86987.22
2022-11-17T20:41:32.348Z,86982.25
2022-11-17T20:44:17.147Z,86994.34
2022-11-17T20:47:01.905Z,87007.50
2022-11-17T20:49:46.544Z,87013.81
2022-11-17T20:52:31.253Z,87020.13
2022-11-17T20:55:15.860Z,87021.63
2022-11-17T20:58:00.669Z,87040.28
2022-11-17T21:00:45.456Z,87033.47
2022-11-17T21:03:30.703Z,87045.28
2022-11-17T21:06:15.552Z,87047.19
2022-11-17T21:09:00.266Z,87052.25
2022-11-17T21:11:45.112Z,87044.59
2022-11-17T21:14:30.552Z,87047.44
2022-11-17T21:17:15.752Z,87034.13
2022-11-17T21:20:00.502Z,87024.91
2022-11-17T21:22:45.257Z,87023.84
2022-11-17T21:25:29.945Z,87023.00
2022-11-17T21:28:14.708Z,87019.41
2022-11-17T21:30:59.501Z,87016.81
2022-11-17T21:33:44.223Z,87015.56
2022-11-17T21:36:29.094Z,87004.06
2022-11-17T21:39:14.213Z,86999.94
2022-11-17T21:41:59.521Z,87004.59
2022-11-17T21:44:44.217Z,87001.72
2022-11-17T21:47:28.965Z,87008.38
2022-11-17T21:50:13.678Z,87011.91
2022-11-17T21:52:58.457Z,87000.91
2022-11-17T21:55:43.305Z,86988.69
2022-11-17T21:58:28.070Z,86996.47
2022-11-17T22:01:12.954Z,86996.13
2022-11-17T22:03:57.782Z,86998.38
2022-11-17T22:06:42.588Z,87009.25
2022-11-17T22:09:27.409Z,87012.53
2022-11-17T22:12:12.240Z,87017.50
2022-11-17T22:14:56.828Z,87023.00
2022-11-17T22:17:41.625Z,87030.25
2022-11-17T22:20:26.303Z,87024.00
2022-11-17T22:23:11.136Z,87018.66
2022-11-17T22:25:55.719Z,87024.53
2022-11-17T22:28:40.372Z,87020.81
2022-11-17T22:31:25.082Z,87024.72
2022-11-17T22:34:09.803Z,87014.59
2022-11-17T22:36:54.654Z,87021.47
2022-11-17T22:39:39.467Z,87014.28
2022-11-17T22:42:24.874Z,87015.81
2022-11-17T22:45:09.558Z,87010.22
2022-11-17T22:47:54.267Z,87004.63
2022-11-17T22:50:39.076Z,86996.16
2022-11-17T22:53:23.965Z,87000.69
2022-11-17T22:56:08.723Z,87013.84
2022-11-17T22:58:59.340Z,87006.56
2022-11-17T23:01:44.697Z,86995.59
2022-11-17T23:04:29.574Z,86988.97
2022-11-17T23:07:14.251Z,86996.91
2022-11-17T23:09:58.969Z,87002.25
2022-11-17T23:12:43.598Z,87007.47
2022-11-17T23:15:28.571Z,87011.75
2022-11-17T23:18:13.253Z,87012.50
2022-11-17T23:20:57.984Z,87022.22
2022-11-17T23:23:42.667Z,87024.41
2022-11-17T23:26:27.379Z,87021.22
2022-11-17T23:29:12.075Z,87015.34
2022-11-17T23:31:56.789Z,87030.78
2022-11-17T23:34:41.736Z,87026.81
2022-11-17T23:37:26.412Z,87022.47
2022-11-17T23:40:11.224Z,87013.28
2022-11-17T23:42:56.025Z,87014.50
2022-11-17T23:45:40.850Z,87007.41
2022-11-17T23:48:25.567Z,87009.09
2022-11-17T23:51:10.329Z,87006.31
2022-11-17T23:53:55.059Z,87006.72
2022-11-17T23:56:39.723Z,87001.59
2022-11-17T23:59:24.432Z,86995.47
